createdAt,value
2016-10-05T00:00:14.877Z,0
2016-10-05T00:00:57.432Z,0
2016-10-05T00:01:40.027Z,0
2016-10-05T00:02:22.571Z,0
2016-10-05T00:03:05.172Z,0
2016-10-05T00:03:47.794Z,0
2016-10-05T00:04:30.354Z,0
2016-10-05T00:05:12.923Z,0
2016-10-05T00:05:55.466Z,0
2016-10-05T00:06:38.063Z,0
2016-10-05T00:07:20.623Z,0
2016-10-05T00:08:03.212Z,0
2016-10-05T00:08:45.721Z,0
2016-10-05T00:09:28.311Z,0
2016-10-05T00:10:10.825Z,0
2016-10-05T00:10:53.403Z,0
2016-10-05T00:11:36.052Z,0
2016-10-05T00:12:18.709Z,0
2016-10-05T00:13:01.231Z,0
2016-10-05T00:13:43.796Z,0
2016-10-05T00:14:26.534Z,0
2016-10-05T00:15:09.104Z,0
2016-10-05T00:15:51.815Z,0
2016-10-05T00:16:34.468Z,0
2016-10-05T00:17:17.083Z,0
2016-10-05T00:17:59.709Z,0
2016-10-05T00:18:42.277Z,0
2016-10-05T00:19:24.893Z,0
2016-10-05T00:20:07.513Z,0
2016-10-05T00:20:50.114Z,0
2016-10-05T00:21:32.779Z,0
2016-10-05T00:22:15.306Z,0
2016-10-05T00:22:57.848Z,0
2016-10-05T00:23:40.362Z,0
2016-10-05T00:24:22.946Z,0
2016-10-05T00:25:05.496Z,0
2016-10-05T00:25:48.085Z,0
2016-10-05T00:26:30.719Z,0
2016-10-05T00:27:13.261Z,0
2016-10-05T00:27:56.689Z,0
2016-10-05T00:28:39.304Z,0
2016-10-05T00:29:21.905Z,0
2016-10-05T00:30:04.365Z,0
2016-10-05T00:30:46.962Z,0
2016-10-05T00:31:29.585Z,0
2016-10-05T00:32:12.208Z,0
2016-10-05T00:32:54.816Z,0
2016-10-05T00:33:37.400Z,0
2016-10-05T00:34:19.918Z,0
2016-10-05T00:35:02.489Z,0
2016-10-05T00:35:45.060Z,0
2016-10-05T00:36:27.661Z,0
2016-10-05T00:37:10.156Z,0
2016-10-05T00:37:52.713Z,0
2016-10-05T00:38:35.825Z,0
2016-10-05T00:39:18.389Z,0
2016-10-05T00:40:00.965Z,0
2016-10-05T00:40:43.500Z,0
2016-10-05T00:41:26.081Z,0
2016-10-05T00:42:08.633Z,0
2016-10-05T00:42:51.224Z,0
2016-10-05T00:43:33.785Z,0
2016-10-05T00:44:16.316Z,0
2016-10-05T00:44:58.959Z,0
2016-10-05T00:45:41.600Z,0
2016-10-05T00:46:24.037Z,0
2016-10-05T00:47:06.730Z,0
2016-10-05T00:47:49.288Z,0
2016-10-05T00:48:31.783Z,0
2016-10-05T00:49:14.731Z,0
2016-10-05T00:49:57.438Z,0
2016-10-05T00:50:40.003Z,0
2016-10-05T00:51:22.621Z,0
2016-10-05T00:52:05.235Z,0
2016-10-05T00:52:47.819Z,0
2016-10-05T00:53:30.219Z,0
2016-10-05T00:54:12.980Z,0
2016-10-05T00:54:55.552Z,0
2016-10-05T00:55:38.133Z,0
2016-10-05T00:56:20.713Z,0
2016-10-05T00:57:03.283Z,0
2016-10-05T00:57:45.916Z,0
2016-10-05T00:58:28.518Z,0
2016-10-05T00:59:11.033Z,0
2016-10-05T00:59:53.573Z,0
2016-10-05T01:00:36.110Z,0
2016-10-05T01:01:18.645Z,0
2016-10-05T01:02:01.212Z,0
2016-10-05T01:02:43.751Z,0
2016-10-05T01:03:26.300Z,0
2016-10-05T01:04:08.877Z,0
2016-10-05T01:04:51.430Z,0
2016-10-05T01:05:33.984Z,0
2016-10-05T01:06:16.573Z,0
2016-10-05T01:06:59.104Z,0
2016-10-05T01:07:41.700Z,0
2016-10-05T01:08:24.257Z,0
2016-10-05T01:09:06.857Z,0
2016-10-05T01:09:49.424Z,0
2016-10-05T01:10:32.025Z,0
2016-10-05T01:11:14.570Z,0
2016-10-05T01:11:57.182Z,0
2016-10-05T01:12:39.757Z,0
2016-10-05T01:13:22.316Z,0
2016-10-05T01:14:04.971Z,0
2016-10-05T01:14:47.534Z,0
2016-10-05T01:15:30.108Z,0
2016-10-05T01:16:12.611Z,0
2016-10-05T01:16:55.205Z,0
2016-10-05T01:17:37.754Z,0
2016-10-05T01:18:20.275Z,0
2016-10-05T01:19:02.838Z,0
2016-10-05T01:19:45.405Z,0
2016-10-05T01:20:27.959Z,0
2016-10-05T01:21:10.478Z,0
2016-10-05T01:21:53.095Z,0
2016-10-05T01:22:35.631Z,0
2016-10-05T01:23:18.198Z,0
2016-10-05T01:24:00.760Z,0
2016-10-05T01:24:43.267Z,0
2016-10-05T01:25:25.724Z,0
2016-10-05T01:26:08.402Z,0
2016-10-05T01:26:50.979Z,0
2016-10-05T01:27:33.566Z,0
2016-10-05T01:28:16.165Z,0
2016-10-05T01:28:58.731Z,0
2016-10-05T01:29:41.322Z,0
2016-10-05T01:30:23.930Z,0
2016-10-05T01:31:06.506Z,0
2016-10-05T01:31:48.911Z,0
2016-10-05T01:32:31.629Z,0
2016-10-05T01:33:14.271Z,0
2016-10-05T01:33:56.859Z,0
2016-10-05T01:34:39.399Z,0
2016-10-05T01:35:21.988Z,0
2016-10-05T01:36:04.599Z,0
2016-10-05T01:36:47.170Z,0
2016-10-05T01:37:29.751Z,0
2016-10-05T01:38:12.305Z,0
2016-10-05T01:38:54.870Z,0
2016-10-05T01:39:37.470Z,0
2016-10-05T01:40:20.047Z,0
2016-10-05T01:41:02.589Z,0
2016-10-05T01:41:45.188Z,0
2016-10-05T01:42:27.772Z,0
2016-10-05T01:43:10.345Z,0
2016-10-05T01:43:52.959Z,0
2016-10-05T01:44:35.563Z,0
2016-10-05T01:45:17.984Z,0
2016-10-05T01:46:01.798Z,0
2016-10-05T01:46:44.300Z,0
2016-10-05T01:47:26.980Z,0
2016-10-05T01:48:09.490Z,0
2016-10-05T01:48:51.889Z,0
2016-10-05T01:49:34.644Z,0
2016-10-05T01:50:17.251Z,0
2016-10-05T01:50:59.800Z,0
2016-10-05T01:51:42.296Z,0
2016-10-05T01:52:24.992Z,0
2016-10-05T01:53:07.500Z,0
2016-10-05T01:53:50.060Z,0
2016-10-05T01:54:32.647Z,0
2016-10-05T01:55:15.291Z,0
2016-10-05T01:55:57.854Z,0
2016-10-05T01:56:40.384Z,0
2016-10-05T01:57:22.914Z,0
2016-10-05T01:58:05.563Z,0
2016-10-05T01:58:47.973Z,0
2016-10-05T01:59:30.679Z,0
2016-10-05T02:00:13.074Z,0
2016-10-05T02:00:55.754Z,0
2016-10-05T02:01:38.344Z,0
2016-10-05T02:02:20.909Z,0
2016-10-05T02:03:03.502Z,0
2016-10-05T02:03:46.063Z,0
2016-10-05T02:04:28.647Z,0
2016-10-05T02:05:11.196Z,0
2016-10-05T02:05:53.722Z,0
2016-10-05T02:06:36.344Z,0
2016-10-05T02:07:18.919Z,0
2016-10-05T02:08:01.440Z,0
2016-10-05T02:08:43.999Z,0
2016-10-05T02:09:26.511Z,0
2016-10-05T02:10:09.107Z,0
2016-10-05T02:10:51.663Z,0
2016-10-05T02:11:34.228Z,0
2016-10-05T02:12:16.796Z,0
2016-10-05T02:12:59.304Z,0
2016-10-05T02:13:41.856Z,0
2016-10-05T02:14:24.421Z,0
2016-10-05T02:15:06.969Z,0
2016-10-05T02:15:49.492Z,0
2016-10-05T02:16:31.913Z,0
2016-10-05T02:17:14.605Z,0
2016-10-05T02:17:57.185Z,0
2016-10-05T02:18:39.715Z,0
2016-10-05T02:19:22.299Z,0
2016-10-05T02:20:04.880Z,0
2016-10-05T02:20:47.469Z,0
2016-10-05T02:21:30.044Z,0
2016-10-05T02:22:12.630Z,0
2016-10-05T02:22:55.252Z,0
2016-10-05T02:23:37.789Z,0
2016-10-05T02:24:20.391Z,0
2016-10-05T02:25:02.954Z,0
2016-10-05T02:25:45.505Z,0
2016-10-05T02:26:28.097Z,0
2016-10-05T02:27:10.681Z,0
2016-10-05T02:27:53.305Z,0
2016-10-05T02:28:35.854Z,0
2016-10-05T02:29:18.358Z,0
2016-10-05T02:30:03.699Z,0
2016-10-05T02:30:53.159Z,0
2016-10-05T02:31:35.733Z,0
2016-10-05T02:32:18.289Z,0
2016-10-05T02:33:00.849Z,0
2016-10-05T02:33:43.391Z,0
2016-10-05T02:34:26.015Z,0
2016-10-05T02:35:08.627Z,0
2016-10-05T02:35:51.166Z,0
2016-10-05T02:36:33.700Z,0
2016-10-05T02:37:16.299Z,0
2016-10-05T02:37:58.781Z,0
2016-10-05T02:38:41.322Z,0
2016-10-05T02:39:23.919Z,0
2016-10-05T02:40:06.378Z,0
2016-10-05T02:40:49.032Z,0
2016-10-05T02:41:31.597Z,0
2016-10-05T02:42:14.171Z,0
2016-10-05T02:42:56.726Z,0
2016-10-05T02:43:39.253Z,0
2016-10-05T02:44:21.844Z,0
2016-10-05T02:45:04.348Z,0
2016-10-05T02:45:46.884Z,0
2016-10-05T02:46:29.425Z,0
2016-10-05T02:47:11.963Z,0
2016-10-05T02:47:54.641Z,0
2016-10-05T02:48:37.183Z,0
2016-10-05T02:49:19.790Z,0
2016-10-05T02:50:05.069Z,0
2016-10-05T02:50:47.716Z,0
2016-10-05T02:51:32.591Z,0
2016-10-05T02:52:19.365Z,0
2016-10-05T02:53:04.149Z,0
2016-10-05T02:53:46.787Z,0
2016-10-05T02:54:29.478Z,0
2016-10-05T02:55:12.115Z,0
2016-10-05T02:55:54.741Z,0
2016-10-05T02:56:37.434Z,0
2016-10-05T02:57:20.033Z,0
2016-10-05T02:58:02.507Z,0
2016-10-05T02:58:45.251Z,0
2016-10-05T02:59:27.811Z,0
2016-10-05T03:00:17.758Z,0
2016-10-05T03:01:00.378Z,0
2016-10-05T03:01:42.873Z,0
2016-10-05T03:03:08.034Z,0
2016-10-05T03:03:50.608Z,0
2016-10-05T03:04:33.136Z,0
2016-10-05T03:05:15.730Z,0
2016-10-05T03:05:58.297Z,0
2016-10-05T03:06:40.880Z,0
2016-10-05T03:07:23.501Z,0
2016-10-05T03:08:06.088Z,0
2016-10-05T03:08:48.672Z,0
2016-10-05T03:09:31.301Z,0
2016-10-05T03:10:13.845Z,0
2016-10-05T03:10:56.525Z,0
2016-10-05T03:11:39.091Z,0
2016-10-05T03:12:21.622Z,0
2016-10-05T03:13:04.194Z,0
2016-10-05T03:13:46.781Z,0
2016-10-05T03:14:29.368Z,0
2016-10-05T03:15:11.879Z,0
2016-10-05T03:15:54.460Z,0
2016-10-05T03:16:37.005Z,0
2016-10-05T03:17:19.617Z,0
2016-10-05T03:18:02.056Z,0
2016-10-05T03:18:44.800Z,0
2016-10-05T03:19:27.363Z,0
2016-10-05T03:20:09.888Z,0
2016-10-05T03:20:52.452Z,0
2016-10-05T03:21:35.012Z,0
2016-10-05T03:22:17.644Z,0
2016-10-05T03:23:00.199Z,0
2016-10-05T03:23:42.830Z,0
2016-10-05T03:24:25.331Z,0
2016-10-05T03:25:07.876Z,0
2016-10-05T03:25:50.334Z,0
2016-10-05T03:26:32.988Z,0
2016-10-05T03:27:15.540Z,0
2016-10-05T03:27:58.114Z,0
2016-10-05T03:28:40.651Z,0
2016-10-05T03:29:23.262Z,0
2016-10-05T03:30:05.846Z,0
2016-10-05T03:30:48.210Z,0
2016-10-05T03:31:30.928Z,0
2016-10-05T03:32:13.537Z,0
2016-10-05T03:32:56.078Z,0
2016-10-05T03:33:38.609Z,0
2016-10-05T03:34:21.256Z,0
2016-10-05T03:35:03.789Z,0
2016-10-05T03:35:46.369Z,0
2016-10-05T03:36:28.968Z,0
2016-10-05T03:37:11.530Z,0
2016-10-05T03:37:54.052Z,0
2016-10-05T03:38:36.721Z,0
2016-10-05T03:39:19.273Z,0
2016-10-05T03:40:01.790Z,0
2016-10-05T03:40:44.424Z,0
2016-10-05T03:41:27.011Z,0
2016-10-05T03:42:09.602Z,0
2016-10-05T03:42:52.158Z,0
2016-10-05T03:43:34.705Z,0
2016-10-05T03:44:17.211Z,0
2016-10-05T03:44:59.738Z,0
2016-10-05T03:45:42.298Z,0
2016-10-05T03:46:24.867Z,0
2016-10-05T03:47:07.469Z,0
2016-10-05T03:47:49.996Z,0
2016-10-05T03:48:32.549Z,0
2016-10-05T03:49:15.080Z,0
2016-10-05T03:49:57.681Z,0
2016-10-05T03:50:40.267Z,0
2016-10-05T03:51:22.809Z,0
2016-10-05T03:52:05.363Z,0
2016-10-05T03:52:47.972Z,0
2016-10-05T03:53:30.488Z,0
2016-10-05T03:54:13.065Z,0
2016-10-05T03:54:55.636Z,0
2016-10-05T03:55:38.269Z,0
2016-10-05T03:56:20.785Z,0
2016-10-05T03:57:03.289Z,0
2016-10-05T03:57:45.905Z,0
2016-10-05T03:58:28.546Z,0
2016-10-05T03:59:11.061Z,0
2016-10-05T03:59:53.678Z,0
2016-10-05T04:00:36.267Z,0
2016-10-05T04:01:18.874Z,0
2016-10-05T04:02:01.507Z,0
2016-10-05T04:02:44.075Z,0
2016-10-05T04:03:26.648Z,0
2016-10-05T04:04:09.267Z,0
2016-10-05T04:04:51.857Z,0
2016-10-05T04:05:34.407Z,0
2016-10-05T04:06:16.940Z,0
2016-10-05T04:06:59.459Z,0
2016-10-05T04:07:42.014Z,0
2016-10-05T04:08:24.592Z,0
2016-10-05T04:09:07.184Z,0
2016-10-05T04:09:50.433Z,0
2016-10-05T04:10:33.272Z,0
2016-10-05T04:11:15.868Z,0
2016-10-05T04:11:58.434Z,0
2016-10-05T04:12:40.943Z,0
2016-10-05T04:13:23.454Z,0
2016-10-05T04:14:06.036Z,0
2016-10-05T04:14:48.584Z,0
2016-10-05T04:15:31.102Z,0
2016-10-05T04:16:13.726Z,0
2016-10-05T04:16:56.320Z,0
2016-10-05T04:17:38.798Z,0
2016-10-05T04:18:21.427Z,0
2016-10-05T04:19:03.924Z,0
2016-10-05T04:19:46.512Z,0
2016-10-05T04:20:29.061Z,0
2016-10-05T04:21:11.585Z,0
2016-10-05T04:21:54.148Z,0
2016-10-05T04:22:36.689Z,0
2016-10-05T04:23:19.244Z,0
2016-10-05T04:24:01.796Z,0
2016-10-05T04:24:44.331Z,0
2016-10-05T04:25:26.918Z,0
2016-10-05T04:26:09.511Z,0
2016-10-05T04:26:51.980Z,0
2016-10-05T04:27:34.639Z,0
2016-10-05T04:28:17.205Z,0
2016-10-05T04:28:59.813Z,0
2016-10-05T04:29:42.342Z,0
2016-10-05T04:30:24.908Z,0
2016-10-05T04:31:07.459Z,0
2016-10-05T04:31:50.056Z,0
2016-10-05T04:32:32.619Z,0
2016-10-05T04:33:15.132Z,0
2016-10-05T04:33:57.761Z,0
2016-10-05T04:34:40.352Z,0
2016-10-05T04:35:22.842Z,0
2016-10-05T04:36:05.434Z,0
2016-10-05T04:36:47.973Z,0
2016-10-05T04:37:30.556Z,0
2016-10-05T04:38:13.114Z,0
2016-10-05T04:38:55.715Z,0
2016-10-05T04:39:38.203Z,0
2016-10-05T04:40:20.919Z,0
2016-10-05T04:41:03.436Z,0
2016-10-05T04:41:46.003Z,0
2016-10-05T04:42:28.522Z,0
2016-10-05T04:43:11.075Z,0
2016-10-05T04:43:53.525Z,0
2016-10-05T04:44:36.222Z,0
2016-10-05T04:45:18.784Z,0
2016-10-05T04:46:01.308Z,0
2016-10-05T04:46:43.832Z,0
2016-10-05T04:47:26.422Z,0
2016-10-05T04:48:08.935Z,0
2016-10-05T04:48:51.454Z,0
2016-10-05T04:49:34.027Z,0
2016-10-05T04:50:16.581Z,0
2016-10-05T04:50:59.194Z,0
2016-10-05T04:51:41.775Z,0
2016-10-05T04:52:24.300Z,0
2016-10-05T04:53:06.912Z,0
2016-10-05T04:53:49.483Z,0
2016-10-05T04:54:32.026Z,0
2016-10-05T04:55:14.548Z,0
2016-10-05T04:55:57.153Z,0
2016-10-05T04:56:39.708Z,0
2016-10-05T04:57:22.243Z,0
2016-10-05T04:58:04.825Z,0
2016-10-05T04:58:47.359Z,0
2016-10-05T04:59:29.894Z,0
2016-10-05T05:00:12.490Z,0
2016-10-05T05:00:55.047Z,0
2016-10-05T05:01:37.662Z,0
2016-10-05T05:02:20.265Z,0
2016-10-05T05:03:02.840Z,0
2016-10-05T05:03:45.405Z,0
2016-10-05T05:04:27.985Z,0
2016-10-05T05:05:10.547Z,0
2016-10-05T05:05:53.123Z,0
2016-10-05T05:06:35.722Z,0
2016-10-05T05:07:18.270Z,0
2016-10-05T05:08:00.796Z,0
2016-10-05T05:08:43.410Z,0
2016-10-05T05:09:26.006Z,0
2016-10-05T05:10:08.439Z,0
2016-10-05T05:10:51.083Z,0
2016-10-05T05:11:33.536Z,0
2016-10-05T05:12:16.204Z,0
2016-10-05T05:12:58.730Z,0
2016-10-05T05:13:41.330Z,0
2016-10-05T05:14:23.860Z,0
2016-10-05T05:15:06.488Z,0
2016-10-05T05:15:49.067Z,0
2016-10-05T05:16:31.686Z,0
2016-10-05T05:17:14.262Z,0
2016-10-05T05:17:56.796Z,0
2016-10-05T05:18:39.947Z,0
2016-10-05T05:19:21.892Z,0
2016-10-05T05:20:04.468Z,0
2016-10-05T05:20:46.799Z,0
2016-10-05T05:21:29.512Z,0
2016-10-05T05:22:12.103Z,0
2016-10-05T05:22:54.629Z,0
2016-10-05T05:23:37.173Z,0
2016-10-05T05:24:19.735Z,0
2016-10-05T05:25:02.241Z,0
2016-10-05T05:25:44.817Z,0
2016-10-05T05:26:27.347Z,0
2016-10-05T05:27:09.974Z,0
2016-10-05T05:27:52.488Z,0
2016-10-05T05:28:35.037Z,0
2016-10-05T05:29:17.589Z,0
2016-10-05T05:30:00.126Z,0
2016-10-05T05:30:42.731Z,0
2016-10-05T05:31:25.960Z,0
2016-10-05T05:32:08.481Z,0
2016-10-05T05:32:51.058Z,0
2016-10-05T05:33:33.606Z,0
2016-10-05T05:34:16.190Z,0
2016-10-05T05:34:58.709Z,0
2016-10-05T05:35:41.281Z,0
2016-10-05T05:36:23.795Z,0
2016-10-05T05:37:06.326Z,0
2016-10-05T05:37:48.909Z,0
2016-10-05T05:38:31.470Z,0
2016-10-05T05:39:14.076Z,0
2016-10-05T05:39:56.656Z,0
2016-10-05T05:40:39.214Z,0
2016-10-05T05:41:21.745Z,0
2016-10-05T05:42:04.326Z,0
2016-10-05T05:42:46.746Z,0
2016-10-05T05:43:29.405Z,0
2016-10-05T05:44:11.922Z,0
2016-10-05T05:44:54.446Z,0
2016-10-05T05:45:37.017Z,0
2016-10-05T05:46:19.655Z,0
2016-10-05T05:47:02.263Z,0
2016-10-05T05:47:44.845Z,0
2016-10-05T05:48:27.426Z,0
2016-10-05T05:49:10.011Z,0
2016-10-05T05:49:52.612Z,0
2016-10-05T05:50:35.170Z,0
2016-10-05T05:51:17.777Z,0
2016-10-05T05:52:00.319Z,0
2016-10-05T05:52:42.728Z,0
2016-10-05T05:53:25.413Z,0
2016-10-05T05:54:07.930Z,0
2016-10-05T05:54:50.517Z,0
2016-10-05T05:55:33.011Z,0
2016-10-05T05:56:15.630Z,0
2016-10-05T05:56:58.130Z,0
2016-10-05T05:57:40.756Z,0
2016-10-05T05:58:23.341Z,0
2016-10-05T05:59:05.927Z,0
2016-10-05T05:59:48.484Z,0
2016-10-05T06:00:31.066Z,0
2016-10-05T06:01:13.609Z,0
2016-10-05T06:01:56.181Z,0
2016-10-05T06:02:38.763Z,0
2016-10-05T06:03:21.302Z,0
2016-10-05T06:04:03.690Z,0
2016-10-05T06:04:46.378Z,0
2016-10-05T06:05:28.919Z,0
2016-10-05T06:06:11.490Z,0
2016-10-05T06:06:54.090Z,0
2016-10-05T06:07:36.651Z,0
2016-10-05T06:08:19.239Z,0
2016-10-05T06:09:01.791Z,0
2016-10-05T06:09:44.448Z,0
2016-10-05T06:10:27.019Z,0
2016-10-05T06:11:09.617Z,0
2016-10-05T06:11:52.064Z,0
2016-10-05T06:12:34.457Z,0
2016-10-05T06:13:17.195Z,0
2016-10-05T06:13:59.753Z,0
2016-10-05T06:14:42.306Z,0
2016-10-05T06:15:24.814Z,0
2016-10-05T06:16:07.374Z,0
2016-10-05T06:16:49.915Z,0
2016-10-05T06:17:32.453Z,0
2016-10-05T06:18:15.027Z,0
2016-10-05T06:18:57.553Z,0
2016-10-05T06:19:40.102Z,0
2016-10-05T06:20:22.646Z,0
2016-10-05T06:21:05.150Z,0
2016-10-05T06:21:47.716Z,0
2016-10-05T06:22:30.399Z,0
2016-10-05T06:23:12.995Z,0
2016-10-05T06:23:55.538Z,0
2016-10-05T06:24:38.100Z,0
2016-10-05T06:25:20.649Z,0
2016-10-05T06:26:03.183Z,0
2016-10-05T06:26:45.667Z,0
2016-10-05T06:27:28.234Z,0
2016-10-05T06:28:10.758Z,0
2016-10-05T06:28:53.349Z,0
2016-10-05T06:29:35.877Z,0
2016-10-05T06:30:18.401Z,0
2016-10-05T06:31:01.016Z,0
2016-10-05T06:31:43.577Z,0
2016-10-05T06:32:26.111Z,0
2016-10-05T06:33:08.488Z,0
2016-10-05T06:33:51.093Z,0
2016-10-05T06:34:33.809Z,0
2016-10-05T06:35:16.399Z,0
2016-10-05T06:35:58.932Z,0
2016-10-05T06:36:41.485Z,0
2016-10-05T06:37:23.882Z,0
2016-10-05T06:38:06.541Z,0
2016-10-05T06:38:49.062Z,0
2016-10-05T06:39:31.589Z,0
2016-10-05T06:40:14.156Z,0
2016-10-05T06:40:56.695Z,0
2016-10-05T06:41:39.203Z,0
2016-10-05T06:42:21.749Z,0
2016-10-05T06:43:04.323Z,0
2016-10-05T06:43:46.944Z,0
2016-10-05T06:44:29.541Z,0
2016-10-05T06:45:12.061Z,0
2016-10-05T06:45:54.556Z,0
2016-10-05T06:46:37.158Z,0
2016-10-05T06:47:19.743Z,0
2016-10-05T06:48:02.303Z,0
2016-10-05T06:48:44.850Z,0
2016-10-05T06:49:27.380Z,0
2016-10-05T06:50:10.487Z,0
2016-10-05T06:50:52.495Z,0
2016-10-05T06:51:35.071Z,0
2016-10-05T06:52:17.637Z,0
2016-10-05T06:53:00.194Z,0
2016-10-05T06:53:42.725Z,0
2016-10-05T06:54:25.364Z,0
2016-10-05T06:55:07.954Z,0
2016-10-05T06:55:50.416Z,0
2016-10-05T06:56:33.004Z,0
2016-10-05T06:57:15.537Z,0
2016-10-05T06:57:58.164Z,0
2016-10-05T06:58:40.746Z,0
2016-10-05T06:59:23.299Z,0
2016-10-05T07:00:05.858Z,0
2016-10-05T07:00:48.399Z,0
2016-10-05T07:01:30.903Z,0
2016-10-05T07:02:13.516Z,0
2016-10-05T07:02:56.074Z,0
2016-10-05T07:03:38.596Z,0
2016-10-05T07:04:21.246Z,0
2016-10-05T07:05:03.696Z,0
2016-10-05T07:05:46.191Z,0
2016-10-05T07:06:28.980Z,0
2016-10-05T07:07:11.528Z,0
2016-10-05T07:07:54.072Z,0
2016-10-05T07:08:36.649Z,0
2016-10-05T07:09:19.243Z,0
2016-10-05T07:10:01.767Z,0
2016-10-05T07:10:44.348Z,0
2016-10-05T07:11:26.873Z,0
2016-10-05T07:12:09.418Z,0
2016-10-05T07:12:51.974Z,0
2016-10-05T07:13:34.540Z,0
2016-10-05T07:14:17.081Z,0
2016-10-05T07:14:59.606Z,0
2016-10-05T07:15:42.179Z,0
2016-10-05T07:16:25.067Z,0
2016-10-05T07:17:07.643Z,0
2016-10-05T07:17:50.213Z,0
2016-10-05T07:18:32.794Z,0
2016-10-05T07:19:15.408Z,0
2016-10-05T07:19:57.853Z,0
2016-10-05T07:20:40.470Z,0
2016-10-05T07:21:23.019Z,0
2016-10-05T07:22:05.546Z,0
2016-10-05T07:22:48.129Z,0
2016-10-05T07:23:30.687Z,0
2016-10-05T07:24:13.180Z,0
2016-10-05T07:24:55.640Z,0
2016-10-05T07:25:38.292Z,0
2016-10-05T07:26:21.489Z,0
2016-10-05T07:27:03.363Z,0
2016-10-05T07:27:45.987Z,0
2016-10-05T07:28:28.545Z,0
2016-10-05T07:29:11.081Z,0
2016-10-05T07:29:53.528Z,0
2016-10-05T07:30:36.275Z,0
2016-10-05T07:31:18.829Z,0
2016-10-05T07:32:01.347Z,0
2016-10-05T07:32:43.918Z,0
2016-10-05T07:33:26.423Z,0
2016-10-05T07:34:08.973Z,0
2016-10-05T07:34:51.578Z,0
2016-10-05T07:35:34.186Z,0
2016-10-05T07:36:16.714Z,0
2016-10-05T07:36:59.309Z,0
2016-10-05T07:37:41.869Z,0
2016-10-05T07:38:24.386Z,0
2016-10-05T07:39:06.873Z,0
2016-10-05T07:39:49.426Z,0
2016-10-05T07:40:31.987Z,0
2016-10-05T07:41:14.577Z,0
2016-10-05T07:41:57.130Z,0
2016-10-05T07:42:39.748Z,0
2016-10-05T07:43:22.272Z,0
2016-10-05T07:44:04.865Z,0
2016-10-05T07:44:47.408Z,0
2016-10-05T07:45:29.764Z,0
2016-10-05T07:46:12.435Z,0
2016-10-05T07:46:55.003Z,0
2016-10-05T07:47:37.566Z,0
2016-10-05T07:48:20.145Z,0
2016-10-05T07:49:02.656Z,0
2016-10-05T07:49:45.296Z,0
2016-10-05T07:50:27.869Z,0
2016-10-05T07:51:10.431Z,0
2016-10-05T07:51:52.984Z,0
2016-10-05T07:52:35.530Z,0
2016-10-05T07:53:18.050Z,0
2016-10-05T07:54:00.611Z,0
2016-10-05T07:54:43.137Z,0
2016-10-05T07:55:25.772Z,0
2016-10-05T07:56:08.270Z,0
2016-10-05T07:56:50.816Z,0
2016-10-05T07:57:33.353Z,0
2016-10-05T07:58:15.931Z,0
2016-10-05T07:58:58.485Z,0
2016-10-05T07:59:41.033Z,0
2016-10-05T08:00:23.571Z,0
2016-10-05T08:01:06.120Z,0
2016-10-05T08:01:48.796Z,0
2016-10-05T08:02:31.346Z,0
2016-10-05T08:03:13.944Z,0
2016-10-05T08:03:56.547Z,0
2016-10-05T08:04:39.082Z,0
2016-10-05T08:05:21.650Z,0
2016-10-05T08:06:04.191Z,0
2016-10-05T08:06:46.751Z,0
2016-10-05T08:07:29.292Z,0
2016-10-05T08:08:11.860Z,0
2016-10-05T08:08:54.440Z,0
2016-10-05T08:09:36.970Z,0
2016-10-05T08:10:19.549Z,0
2016-10-05T08:11:02.110Z,0
2016-10-05T08:11:44.659Z,0
2016-10-05T08:12:27.204Z,0
2016-10-05T08:13:09.768Z,0
2016-10-05T08:13:52.307Z,0
2016-10-05T08:14:34.821Z,0
2016-10-05T08:15:17.331Z,0
2016-10-05T08:15:59.833Z,0
2016-10-05T08:16:42.404Z,0
2016-10-05T08:17:24.979Z,0
2016-10-05T08:18:07.362Z,0
2016-10-05T08:18:50.049Z,0
2016-10-05T08:19:32.629Z,0
2016-10-05T08:20:15.201Z,0
2016-10-05T08:20:57.702Z,0
2016-10-05T08:21:40.198Z,0
2016-10-05T08:22:22.726Z,0
2016-10-05T08:23:05.247Z,0
2016-10-05T08:23:47.822Z,0
2016-10-05T08:24:30.395Z,0
2016-10-05T08:25:12.963Z,0
2016-10-05T08:25:55.541Z,0
2016-10-05T08:26:38.113Z,4
2016-10-05T08:27:20.684Z,0
2016-10-05T08:28:03.248Z,0
2016-10-05T08:28:45.835Z,4
2016-10-05T08:29:28.380Z,0
2016-10-05T08:30:10.971Z,0
2016-10-05T08:30:53.497Z,4
2016-10-05T08:31:36.074Z,4
2016-10-05T08:32:18.611Z,4
2016-10-05T08:33:01.140Z,4
2016-10-05T08:33:43.666Z,4
2016-10-05T08:34:26.230Z,8
2016-10-05T08:35:08.801Z,8
2016-10-05T08:35:51.303Z,12
2016-10-05T08:36:33.808Z,8
2016-10-05T08:37:16.424Z,12
2016-10-05T08:37:58.897Z,16
2016-10-05T08:38:41.612Z,24
2016-10-05T08:39:24.144Z,24
2016-10-05T08:40:06.715Z,28
2016-10-05T08:40:49.286Z,28
2016-10-05T08:41:31.866Z,28
2016-10-05T08:42:14.392Z,36
2016-10-05T08:42:56.923Z,40
2016-10-05T08:43:39.435Z,44
2016-10-05T08:44:21.984Z,52
2016-10-05T08:45:04.552Z,56
2016-10-05T08:45:47.162Z,60
2016-10-05T08:46:29.724Z,68
2016-10-05T08:47:12.301Z,84
2016-10-05T08:47:54.891Z,96
2016-10-05T08:48:37.510Z,116
2016-10-05T08:49:20.082Z,148
2016-10-05T08:50:02.655Z,164
2016-10-05T08:50:45.174Z,176
2016-10-05T08:51:27.738Z,180
2016-10-05T08:52:10.339Z,196
2016-10-05T08:52:52.823Z,204
2016-10-05T08:53:35.345Z,208
2016-10-05T08:54:17.872Z,216
2016-10-05T08:55:00.376Z,232
2016-10-05T08:55:42.961Z,248
2016-10-05T08:56:25.539Z,260
2016-10-05T08:57:08.071Z,264
2016-10-05T08:57:50.681Z,276
2016-10-05T08:58:33.203Z,304
2016-10-05T08:59:15.755Z,340
2016-10-05T08:59:58.275Z,380
2016-10-05T09:00:40.869Z,400
2016-10-05T09:01:23.393Z,412
2016-10-05T09:02:05.918Z,456
2016-10-05T09:02:48.546Z,516
2016-10-05T09:03:31.100Z,560
2016-10-05T09:04:13.631Z,612
2016-10-05T09:04:56.187Z,632
2016-10-05T09:05:38.725Z,616
2016-10-05T09:06:21.291Z,604
2016-10-05T09:07:04.075Z,580
2016-10-05T09:07:46.873Z,588
2016-10-05T09:08:29.451Z,596
2016-10-05T09:09:12.017Z,596
2016-10-05T09:09:54.936Z,576
2016-10-05T09:10:37.449Z,580
2016-10-05T09:11:19.943Z,604
2016-10-05T09:12:02.299Z,604
2016-10-05T09:12:45.030Z,664
2016-10-05T09:13:27.547Z,776
2016-10-05T09:14:10.076Z,836
2016-10-05T09:14:52.675Z,828
2016-10-05T09:15:35.244Z,788
2016-10-05T09:16:17.693Z,752
2016-10-05T09:17:00.399Z,744
2016-10-05T09:17:42.901Z,748
2016-10-05T09:18:25.444Z,764
2016-10-05T09:19:08.060Z,764
2016-10-05T09:19:50.641Z,780
2016-10-05T09:20:33.196Z,856
2016-10-05T09:21:15.738Z,960
2016-10-05T09:21:58.260Z,1052
2016-10-05T09:22:40.809Z,1112
2016-10-05T09:23:23.358Z,1152
2016-10-05T09:24:05.894Z,1100
2016-10-05T09:24:48.455Z,1028
2016-10-05T09:25:30.958Z,988
2016-10-05T09:26:13.496Z,960
2016-10-05T09:26:56.033Z,920
2016-10-05T09:27:38.536Z,912
2016-10-05T09:28:21.134Z,916
2016-10-05T09:29:03.706Z,940
2016-10-05T09:29:46.287Z,948
2016-10-05T09:30:28.820Z,952
2016-10-05T09:31:11.422Z,932
2016-10-05T09:31:53.935Z,956
2016-10-05T09:32:36.565Z,904
2016-10-05T09:33:19.082Z,836
2016-10-05T09:34:01.644Z,776
2016-10-05T09:34:44.032Z,744
2016-10-05T09:35:26.819Z,740
2016-10-05T09:36:09.427Z,720
2016-10-05T09:36:51.975Z,716
2016-10-05T09:37:34.546Z,708
2016-10-05T09:38:17.138Z,720
2016-10-05T09:38:59.698Z,792
2016-10-05T09:39:42.212Z,716
2016-10-05T09:40:24.769Z,596
2016-10-05T09:41:07.456Z,704
2016-10-05T09:41:50.011Z,752
2016-10-05T09:42:32.555Z,904
2016-10-05T09:43:15.085Z,680
2016-10-05T09:43:57.625Z,640
2016-10-05T09:44:40.143Z,860
2016-10-05T09:45:22.698Z,1008
2016-10-05T09:46:05.263Z,788
2016-10-05T09:46:47.843Z,608
2016-10-05T09:47:30.444Z,664
2016-10-05T09:48:12.983Z,792
2016-10-05T09:48:55.554Z,740
2016-10-05T09:49:38.132Z,620
2016-10-05T09:50:20.688Z,624
2016-10-05T09:51:03.355Z,648
2016-10-05T09:51:45.947Z,772
2016-10-05T09:52:28.493Z,628
2016-10-05T09:53:11.107Z,504
2016-10-05T09:53:53.642Z,664
2016-10-05T09:54:36.200Z,820
2016-10-05T09:55:18.670Z,976
2016-10-05T09:56:01.335Z,1024
2016-10-05T09:56:43.883Z,1036
2016-10-05T09:57:26.450Z,1076
2016-10-05T09:58:08.988Z,1076
2016-10-05T09:58:51.354Z,1016
2016-10-05T09:59:34.094Z,880
2016-10-05T10:00:16.659Z,920
2016-10-05T10:00:59.242Z,1080
2016-10-05T10:01:41.781Z,1236
2016-10-05T10:02:24.299Z,924
2016-10-05T10:03:06.825Z,616
2016-10-05T10:03:49.370Z,664
2016-10-05T10:04:31.910Z,808
2016-10-05T10:05:14.491Z,592
2016-10-05T10:05:57.108Z,432
2016-10-05T10:06:39.650Z,480
2016-10-05T10:07:22.197Z,600
2016-10-05T10:08:04.788Z,624
2016-10-05T10:08:47.351Z,712
2016-10-05T10:09:29.932Z,896
2016-10-05T10:10:12.493Z,1040
2016-10-05T10:10:55.050Z,1244
2016-10-05T10:11:37.554Z,1424
2016-10-05T10:12:20.127Z,1396
2016-10-05T10:13:02.678Z,1280
2016-10-05T10:13:45.281Z,1248
2016-10-05T10:14:27.848Z,1284
2016-10-05T10:15:10.421Z,1432
2016-10-05T10:15:53.005Z,1612
2016-10-05T10:16:35.591Z,1748
2016-10-05T10:17:18.154Z,1868
2016-10-05T10:18:00.679Z,1972
2016-10-05T10:18:43.221Z,2056
2016-10-05T10:19:25.743Z,2296
2016-10-05T10:20:08.320Z,2236
2016-10-05T10:20:50.877Z,1588
2016-10-05T10:21:33.429Z,1684
2016-10-05T10:22:15.975Z,1976